createdAt,value
2018-09-18T00:00:19.622Z,16.30
2018-09-18T00:02:48.082Z,16.40
2018-09-18T00:07:56.678Z,16.20
2018-09-18T00:10:24.913Z,16.10
2018-09-18T00:12:53.174Z,16.10
2018-09-18T00:15:21.423Z,16.10
2018-09-18T00:17:49.682Z,16.00
2018-09-18T00:20:17.915Z,16.00
2018-09-18T00:22:46.170Z,15.80
2018-09-18T00:25:14.342Z,15.70
2018-09-18T00:27:42.568Z,15.80
2018-09-18T00:30:10.778Z,16.00
2018-09-18T00:32:39.011Z,16.00
2018-09-18T00:35:07.267Z,16.10
2018-09-18T00:37:35.589Z,15.90
2018-09-18T00:40:03.948Z,15.60
2018-09-18T00:42:32.242Z,15.60
2018-09-18T00:45:00.493Z,15.80
2018-09-18T00:47:28.777Z,15.90
2018-09-18T00:49:57.054Z,16.00
2018-09-18T00:52:25.310Z,16.00
2018-09-18T00:54:53.568Z,15.90
2018-09-18T00:57:21.796Z,15.80
2018-09-18T00:59:50.041Z,15.40
2018-09-18T01:02:18.330Z,15.10
2018-09-18T01:04:46.608Z,15.00
2018-09-18T01:07:14.895Z,14.20
2018-09-18T01:09:43.229Z,13.60
2018-09-18T01:12:11.448Z,13.40
2018-09-18T01:14:39.733Z,13.30
2018-09-18T01:17:07.986Z,14.00
2018-09-18T01:19:36.333Z,14.80
2018-09-18T01:22:04.579Z,15.10
2018-09-18T01:24:32.835Z,15.20
2018-09-18T01:27:01.105Z,15.20
2018-09-18T01:29:29.484Z,15.30
2018-09-18T01:31:57.767Z,14.30
2018-09-18T01:34:26.061Z,14.60
2018-09-18T01:36:54.320Z,14.10
2018-09-18T01:39:22.660Z,14.50
2018-09-18T01:41:50.919Z,14.50
2018-09-18T01:44:19.190Z,14.10
2018-09-18T01:46:47.417Z,13.80
2018-09-18T01:49:15.694Z,13.60
2018-09-18T01:51:43.966Z,13.20
2018-09-18T01:54:12.246Z,13.30
2018-09-18T01:56:40.521Z,14.10
2018-09-18T01:59:09.106Z,14.10
2018-09-18T02:01:37.380Z,14.50
2018-09-18T02:04:05.633Z,14.30
2018-09-18T02:06:33.905Z,14.60
2018-09-18T02:09:02.173Z,14.70
2018-09-18T02:11:30.468Z,14.30
2018-09-18T02:13:58.655Z,13.40
2018-09-18T02:16:26.836Z,13.90
2018-09-18T02:18:55.052Z,13.80
2018-09-18T02:21:23.277Z,14.30
2018-09-18T02:23:51.551Z,14.20
2018-09-18T02:26:19.728Z,13.70
2018-09-18T02:28:47.893Z,13.40
2018-09-18T02:31:16.185Z,13.40
2018-09-18T02:33:44.464Z,13.90
2018-09-18T02:36:13.639Z,14.10
2018-09-18T02:38:41.863Z,14.20
2018-09-18T02:41:10.053Z,14.30
2018-09-18T02:43:38.277Z,14.20
2018-09-18T02:46:06.429Z,14.30
2018-09-18T02:48:34.604Z,14.20
2018-09-18T02:51:02.786Z,14.10
2018-09-18T02:53:30.966Z,13.50
2018-09-18T02:55:59.145Z,13.90
2018-09-18T02:58:27.310Z,14.30
2018-09-18T03:00:55.496Z,14.40
2018-09-18T03:03:23.657Z,14.30
2018-09-18T03:05:51.898Z,14.40
2018-09-18T03:08:20.072Z,13.40
2018-09-18T03:10:48.360Z,12.80
2018-09-18T03:13:16.604Z,13.50
2018-09-18T03:15:44.800Z,13.20
2018-09-18T03:18:12.988Z,13.80
2018-09-18T03:20:41.147Z,13.40
2018-09-18T03:23:09.527Z,13.50
2018-09-18T03:25:37.753Z,12.90
2018-09-18T03:28:06.022Z,12.80
2018-09-18T03:30:34.257Z,13.00
2018-09-18T03:33:02.639Z,12.80
2018-09-18T03:35:30.834Z,12.80
2018-09-18T03:37:59.104Z,12.30
2018-09-18T03:40:27.333Z,12.10
2018-09-18T03:42:55.553Z,12.70
2018-09-18T03:45:23.816Z,12.10
2018-09-18T03:47:52.028Z,12.10
2018-09-18T03:50:20.323Z,12.00
2018-09-18T03:52:48.585Z,12.70
2018-09-18T03:55:16.817Z,12.90
2018-09-18T03:57:45.065Z,13.10
2018-09-18T04:00:13.304Z,13.40
2018-09-18T04:02:41.522Z,12.90
2018-09-18T04:05:09.704Z,13.20
2018-09-18T04:07:37.953Z,13.40
2018-09-18T04:10:06.526Z,13.50
2018-09-18T04:12:34.713Z,13.40
2018-09-18T04:15:03.269Z,12.40
2018-09-18T04:17:31.472Z,12.20
2018-09-18T04:19:59.616Z,12.00
2018-09-18T04:22:27.858Z,11.60
2018-09-18T04:24:56.060Z,12.10
2018-09-18T04:27:24.275Z,12.50
2018-09-18T04:29:52.458Z,12.00
2018-09-18T04:32:20.709Z,11.70
2018-09-18T04:34:48.916Z,11.40
2018-09-18T04:37:17.145Z,12.50
2018-09-18T04:39:45.341Z,12.40
2018-09-18T04:42:13.541Z,12.30
2018-09-18T04:44:41.695Z,11.70
2018-09-18T04:47:09.925Z,11.70
2018-09-18T04:49:38.183Z,11.60
2018-09-18T04:52:06.402Z,11.20
2018-09-18T04:54:34.611Z,11.30
2018-09-18T04:57:02.841Z,11.60
2018-09-18T04:59:31.114Z,12.50
2018-09-18T05:01:59.362Z,12.60
2018-09-18T05:04:27.520Z,13.00
2018-09-18T05:06:55.712Z,12.00
2018-09-18T05:09:23.958Z,11.80
2018-09-18T05:11:52.124Z,11.90
2018-09-18T05:14:20.300Z,11.50
2018-09-18T05:16:48.522Z,12.20
2018-09-18T05:19:16.758Z,12.80
2018-09-18T05:21:44.985Z,11.80
2018-09-18T05:24:13.222Z,11.80
2018-09-18T05:26:41.452Z,11.40
2018-09-18T05:29:09.661Z,11.20
2018-09-18T05:31:37.825Z,11.40
2018-09-18T05:34:06.062Z,12.30
2018-09-18T05:36:34.241Z,13.30
2018-09-18T05:39:02.452Z,13.80
2018-09-18T05:41:30.663Z,13.10
2018-09-18T05:43:58.910Z,12.70
2018-09-18T05:46:27.168Z,12.60
2018-09-18T05:48:55.346Z,13.00
2018-09-18T05:51:23.573Z,13.60
2018-09-18T05:53:51.744Z,13.90
2018-09-18T05:56:20.077Z,13.80
2018-09-18T05:58:48.349Z,13.40
2018-09-18T06:01:16.597Z,13.40
2018-09-18T06:03:44.973Z,14.10
2018-09-18T06:06:13.261Z,15.30
2018-09-18T06:08:41.554Z,15.90
2018-09-18T06:11:09.813Z,15.60
2018-09-18T06:13:38.113Z,15.00
2018-09-18T06:16:06.335Z,15.20
2018-09-18T06:18:34.524Z,15.40
2018-09-18T06:21:02.740Z,16.50
2018-09-18T06:23:30.911Z,16.50
2018-09-18T06:25:59.143Z,16.40
2018-09-18T06:28:27.364Z,16.20
2018-09-18T06:30:55.594Z,16.40
2018-09-18T06:33:23.813Z,16.50
2018-09-18T06:35:52.353Z,17.20
2018-09-18T06:38:20.572Z,18.40
2018-09-18T06:40:48.865Z,18.20
2018-09-18T06:43:17.279Z,19.30
2018-09-18T06:45:45.504Z,20.30
2018-09-18T06:48:13.861Z,21.20
2018-09-18T06:50:42.155Z,21.90
2018-09-18T06:53:10.490Z,22.10
2018-09-18T06:55:39.592Z,22.60
2018-09-18T06:58:07.806Z,22.50
2018-09-18T07:00:36.133Z,22.60
2018-09-18T07:03:04.405Z,22.90
2018-09-18T07:05:32.648Z,22.90
2018-09-18T07:08:00.892Z,23.40
2018-09-18T07:10:29.216Z,23.90
2018-09-18T07:12:57.442Z,24.60
2018-09-18T07:15:25.718Z,24.20
2018-09-18T07:17:53.986Z,24.90
2018-09-18T07:20:22.305Z,24.20
2018-09-18T07:22:50.549Z,24.20
2018-09-18T07:25:18.843Z,24.70
2018-09-18T07:27:47.133Z,25.10
2018-09-18T07:30:15.405Z,25.60
2018-09-18T07:32:43.633Z,25.50
2018-09-18T07:35:11.857Z,25.00
2018-09-18T07:37:40.109Z,25.20
2018-09-18T07:40:08.277Z,24.90
2018-09-18T07:42:36.459Z,24.90
2018-09-18T07:45:04.769Z,24.90
2018-09-18T07:47:33.039Z,24.90
2018-09-18T07:50:01.315Z,25.00
2018-09-18T07:52:29.583Z,25.00
2018-09-18T07:54:57.833Z,24.60
2018-09-18T07:57:26.119Z,24.80
2018-09-18T07:59:54.386Z,25.00
2018-09-18T08:02:22.594Z,24.90
2018-09-18T08:04:50.841Z,25.10
2018-09-18T08:07:19.136Z,25.40
2018-09-18T08:09:47.516Z,25.80
2018-09-18T08:12:15.799Z,26.00
2018-09-18T08:14:44.073Z,26.10
2018-09-18T08:17:12.450Z,25.90
2018-09-18T08:19:40.865Z,25.60
2018-09-18T08:22:09.027Z,25.30
2018-09-18T08:24:37.291Z,25.50
2018-09-18T08:27:05.726Z,25.30
2018-09-18T08:29:34.002Z,25.30
2018-09-18T08:32:02.266Z,25.10
2018-09-18T08:34:30.486Z,25.20
2018-09-18T08:36:58.768Z,25.30
2018-09-18T08:39:27.025Z,25.40
2018-09-18T08:41:55.334Z,25.40
2018-09-18T08:44:23.497Z,25.50
2018-09-18T08:46:51.800Z,25.30
2018-09-18T08:49:20.033Z,25.20
2018-09-18T08:51:48.392Z,25.60
2018-09-18T08:54:16.587Z,25.60
2018-09-18T08:56:44.865Z,25.60
2018-09-18T08:59:13.050Z,25.80
2018-09-18T09:01:41.361Z,25.80
2018-09-18T09:04:09.579Z,25.60
2018-09-18T09:06:37.845Z,25.60
2018-09-18T09:09:10.959Z,25.50
2018-09-18T09:11:39.140Z,25.60
2018-09-18T09:14:07.404Z,25.80
2018-09-18T09:16:35.881Z,25.60
2018-09-18T09:19:04.212Z,26.00
2018-09-18T09:21:32.471Z,26.40
2018-09-18T09:24:00.633Z,26.60
2018-09-18T09:26:28.794Z,26.90
2018-09-18T09:28:57.121Z,26.80
2018-09-18T09:31:31.905Z,27.00
2018-09-18T09:34:00.138Z,27.10
2018-09-18T09:36:28.307Z,27.00
2018-09-18T09:38:56.574Z,27.20
2018-09-18T09:41:24.783Z,27.40
2018-09-18T09:43:53.023Z,27.00
2018-09-18T09:46:21.229Z,27.00
2018-09-18T09:48:49.515Z,27.20
2018-09-18T09:51:17.707Z,27.70
2018-09-18T09:53:45.934Z,27.70
2018-09-18T09:56:14.189Z,27.60
2018-09-18T09:58:42.413Z,27.90
2018-09-18T10:01:16.037Z,27.90
2018-09-18T10:03:44.237Z,28.50
2018-09-18T10:06:12.476Z,29.20
2018-09-18T10:08:40.773Z,30.00
2018-09-18T10:11:09.049Z,30.10
2018-09-18T10:13:37.338Z,30.10
2018-09-18T10:16:05.590Z,30.70
2018-09-18T10:18:33.883Z,31.60
2018-09-18T10:21:02.134Z,32.20
2018-09-18T10:23:30.446Z,32.10
2018-09-18T10:25:58.723Z,32.50
2018-09-18T10:28:26.985Z,32.70
2018-09-18T10:30:55.289Z,32.30
2018-09-18T10:33:23.538Z,32.80
2018-09-18T10:35:51.784Z,32.90
2018-09-18T10:38:20.143Z,33.20
2018-09-18T10:40:48.415Z,32.70
2018-09-18T10:43:16.634Z,32.20
2018-09-18T10:45:44.897Z,32.30
2018-09-18T10:48:13.113Z,32.00
2018-09-18T10:50:41.359Z,32.40
2018-09-18T10:53:09.649Z,32.30
2018-09-18T10:55:37.882Z,32.80
2018-09-18T10:58:06.526Z,33.30
2018-09-18T11:00:34.862Z,33.30
2018-09-18T11:03:03.212Z,33.50
2018-09-18T11:05:31.536Z,34.20
2018-09-18T11:07:59.912Z,34.40
2018-09-18T11:10:28.150Z,34.30
2018-09-18T11:12:56.379Z,34.30
2018-09-18T11:15:24.763Z,35.10
2018-09-18T11:17:52.960Z,34.40
2018-09-18T11:20:21.231Z,35.10
2018-09-18T11:22:49.438Z,35.00
2018-09-18T11:25:17.795Z,35.10
2018-09-18T11:27:45.948Z,35.00
2018-09-18T11:30:14.182Z,35.60
2018-09-18T11:32:42.491Z,35.50
2018-09-18T11:35:10.882Z,35.30
2018-09-18T11:37:39.919Z,35.10
2018-09-18T11:40:08.297Z,35.50
2018-09-18T11:42:36.862Z,35.60
2018-09-18T11:45:05.401Z,35.10
2018-09-18T11:47:34.014Z,35.00
2018-09-18T11:50:02.491Z,35.70
2018-09-18T11:52:30.861Z,35.50
2018-09-18T11:54:59.352Z,35.00
2018-09-18T11:57:27.922Z,35.60
2018-09-18T11:59:56.495Z,36.20
2018-09-18T12:02:25.043Z,36.20
2018-09-18T12:04:53.549Z,36.10
2018-09-18T12:07:21.962Z,36.20
2018-09-18T12:09:50.488Z,35.40
2018-09-18T12:12:19.153Z,36.20
2018-09-18T12:14:47.852Z,36.40
2018-09-18T12:17:16.752Z,36.50
2018-09-18T12:19:45.444Z,36.30
2018-09-18T12:22:14.045Z,36.00
2018-09-18T12:24:42.463Z,35.20
2018-09-18T12:27:11.081Z,35.70
2018-09-18T12:29:40.531Z,35.50
2018-09-18T12:32:09.323Z,35.70
2018-09-18T12:34:38.698Z,35.30
2018-09-18T12:37:07.246Z,35.40
2018-09-18T12:39:35.628Z,35.50
2018-09-18T12:42:04.199Z,35.90
2018-09-18T12:44:32.499Z,36.40
2018-09-18T12:47:01.199Z,34.60
2018-09-18T12:49:30.469Z,35.00
2018-09-18T12:51:58.815Z,35.00
2018-09-18T12:54:27.338Z,34.80
2018-09-18T12:56:55.895Z,33.40
2018-09-18T12:59:24.658Z,33.40
2018-09-18T13:01:53.303Z,33.60
2018-09-18T13:04:21.844Z,33.70
2018-09-18T13:06:50.520Z,33.10
2018-09-18T13:09:18.974Z,33.00
2018-09-18T13:11:47.333Z,33.20
2018-09-18T13:14:15.998Z,32.70
2018-09-18T13:16:44.597Z,32.10
2018-09-18T13:19:13.136Z,32.50
2018-09-18T13:21:41.657Z,32.20
2018-09-18T13:24:10.215Z,31.60
2018-09-18T13:26:39.133Z,31.10
2018-09-18T13:29:07.750Z,30.90
2018-09-18T13:31:36.306Z,30.70
2018-09-18T13:34:04.741Z,30.70
2018-09-18T13:36:33.245Z,30.50
2018-09-18T13:39:01.798Z,31.00
2018-09-18T13:41:30.291Z,31.30
2018-09-18T13:43:58.878Z,31.60
2018-09-18T13:46:27.516Z,31.50
2018-09-18T13:48:55.882Z,31.20
2018-09-18T13:51:24.381Z,31.10
2018-09-18T13:53:53.015Z,31.00
2018-09-18T13:56:21.512Z,31.40
2018-09-18T13:58:49.968Z,31.50
2018-09-18T14:01:18.529Z,31.70
2018-09-18T14:03:47.348Z,31.40
2018-09-18T14:06:15.670Z,31.10
2018-09-18T14:08:44.054Z,31.00
2018-09-18T14:11:12.460Z,30.70
2018-09-18T14:13:40.940Z,30.60
2018-09-18T14:16:09.781Z,30.50
2018-09-18T14:18:38.208Z,30.50
2018-09-18T14:21:06.599Z,30.80
2018-09-18T14:23:35.174Z,30.60
2018-09-18T14:26:03.703Z,30.90
2018-09-18T14:28:32.295Z,31.10
2018-09-18T14:31:00.678Z,31.20
2018-09-18T14:33:29.161Z,31.10
2018-09-18T14:35:57.799Z,31.20
2018-09-18T14:38:26.348Z,31.50
2018-09-18T14:40:54.865Z,31.70
2018-09-18T14:43:23.340Z,31.40
2018-09-18T14:45:51.747Z,31.30
2018-09-18T14:48:20.304Z,31.40
2018-09-18T14:50:48.897Z,31.50
2018-09-18T14:53:17.352Z,31.60
2018-09-18T14:55:45.770Z,31.60
2018-09-18T14:58:14.223Z,31.30
2018-09-18T15:00:42.730Z,31.30
2018-09-18T15:03:11.068Z,31.20
2018-09-18T15:05:39.555Z,31.10
2018-09-18T15:08:08.065Z,31.10
2018-09-18T15:10:36.507Z,31.00
2018-09-18T15:13:05.016Z,30.80
2018-09-18T15:15:33.422Z,30.60
2018-09-18T15:18:01.986Z,30.10
2018-09-18T15:20:30.504Z,29.70
2018-09-18T15:22:58.838Z,29.40
2018-09-18T15:25:27.307Z,29.20
2018-09-18T15:27:55.807Z,29.00
2018-09-18T15:30:24.358Z,28.90
2018-09-18T15:32:52.908Z,28.70
2018-09-18T15:35:21.444Z,28.50
2018-09-18T15:37:49.989Z,28.40
2018-09-18T15:40:18.522Z,28.20
2018-09-18T15:42:46.982Z,28.10
2018-09-18T15:45:15.392Z,28.10
2018-09-18T15:47:44.852Z,28.00
2018-09-18T15:50:13.436Z,28.00
2018-09-18T15:52:41.946Z,28.00
2018-09-18T15:55:10.535Z,27.90
2018-09-18T15:57:39.156Z,27.90
2018-09-18T16:00:07.616Z,27.80
2018-09-18T16:02:36.197Z,27.80
2018-09-18T16:05:04.884Z,27.70
2018-09-18T16:07:33.419Z,27.70
2018-09-18T16:10:01.827Z,27.70
2018-09-18T16:12:30.322Z,27.60
2018-09-18T16:14:58.727Z,27.60
2018-09-18T16:17:27.124Z,27.60
2018-09-18T16:19:55.721Z,27.60
2018-09-18T16:22:24.268Z,27.60
2018-09-18T16:24:52.758Z,27.50
2018-09-18T16:27:21.312Z,27.40
2018-09-18T16:29:49.749Z,27.40
2018-09-18T16:32:18.242Z,27.30
2018-09-18T16:34:46.799Z,27.20
2018-09-18T16:37:15.344Z,27.20
2018-09-18T16:39:43.616Z,27.20
2018-09-18T16:42:11.933Z,27.20
2018-09-18T16:44:40.165Z,27.10
2018-09-18T16:47:08.445Z,27.10
2018-09-18T16:49:36.712Z,27.10
2018-09-18T16:52:04.992Z,27.00
2018-09-18T16:54:33.373Z,26.80
2018-09-18T16:57:01.504Z,26.70
2018-09-18T16:59:29.732Z,26.70
2018-09-18T17:01:57.997Z,26.50
2018-09-18T17:04:26.828Z,26.00
2018-09-18T17:06:55.410Z,26.00
2018-09-18T17:09:23.651Z,26.00
2018-09-18T17:11:51.902Z,26.10
2018-09-18T17:14:20.174Z,26.00
2018-09-18T17:16:48.447Z,26.20
2018-09-18T17:19:16.721Z,26.00
2018-09-18T17:21:44.981Z,26.00
2018-09-18T17:24:13.310Z,26.00
2018-09-18T17:26:41.581Z,25.90
2018-09-18T17:29:09.939Z,25.90
2018-09-18T17:31:38.128Z,25.90
2018-09-18T17:34:06.491Z,25.90
2018-09-18T17:36:34.751Z,25.80
2018-09-18T17:39:03.146Z,25.80
2018-09-18T17:41:31.471Z,25.80
2018-09-18T17:43:59.736Z,25.80
2018-09-18T17:46:28.073Z,25.90
2018-09-18T17:48:56.349Z,25.90
2018-09-18T17:51:24.628Z,25.30
2018-09-18T17:53:52.906Z,25.50
2018-09-18T17:56:22.210Z,25.50
2018-09-18T17:58:50.480Z,25.50
2018-09-18T18:01:18.713Z,25.50
2018-09-18T18:03:47.129Z,25.50
2018-09-18T18:06:15.392Z,25.40
2018-09-18T18:08:43.625Z,25.50
2018-09-18T18:11:11.839Z,25.30
2018-09-18T18:13:40.112Z,25.30
2018-09-18T18:16:08.313Z,25.30
2018-09-18T18:18:36.589Z,25.30
2018-09-18T18:21:04.828Z,25.30
2018-09-18T18:23:33.114Z,25.30
2018-09-18T18:26:01.269Z,25.30
2018-09-18T18:28:29.467Z,25.20
2018-09-18T18:30:57.710Z,25.20
2018-09-18T18:33:25.980Z,25.10
2018-09-18T18:35:54.213Z,24.90
2018-09-18T18:38:22.389Z,25.00
2018-09-18T18:40:50.726Z,25.00
2018-09-18T18:43:18.830Z,24.90
2018-09-18T18:48:50.420Z,24.90
2018-09-18T18:51:18.637Z,24.80
2018-09-18T18:53:46.834Z,24.80
2018-09-18T18:56:15.061Z,24.80
2018-09-18T18:58:43.314Z,24.80
2018-09-18T19:01:11.561Z,24.60
2018-09-18T19:03:39.756Z,24.60
2018-09-18T19:06:08.070Z,24.60
2018-09-18T19:08:36.264Z,24.50
2018-09-18T19:11:04.444Z,24.60
2018-09-18T19:13:32.654Z,24.50
2018-09-18T19:16:00.935Z,24.40
2018-09-18T19:18:29.707Z,24.30
2018-09-18T19:20:57.881Z,24.40
2018-09-18T19:23:26.175Z,24.40
2018-09-18T19:25:54.413Z,24.40
2018-09-18T19:28:22.547Z,24.00
2018-09-18T19:30:50.742Z,24.10
2018-09-18T19:33:19.110Z,24.20
2018-09-18T19:35:47.133Z,23.90
2018-09-18T19:38:15.330Z,23.60
2018-09-18T19:40:43.577Z,23.10
2018-09-18T19:43:11.844Z,23.10
2018-09-18T19:45:40.002Z,23.30
2018-09-18T19:48:08.284Z,23.30
2018-09-18T19:50:36.702Z,23.20
2018-09-18T19:53:04.873Z,23.20
2018-09-18T19:55:33.083Z,23.30
2018-09-18T19:58:01.285Z,23.30
2018-09-18T20:00:29.501Z,23.20
2018-09-18T20:02:57.721Z,23.00
2018-09-18T20:05:25.922Z,23.10
2018-09-18T20:07:54.124Z,23.20
2018-09-18T20:10:22.345Z,23.20
2018-09-18T20:12:50.546Z,23.20
2018-09-18T20:15:18.764Z,23.30
2018-09-18T20:17:47.025Z,23.30
2018-09-18T20:20:15.252Z,23.30
2018-09-18T20:22:43.646Z,23.10
2018-09-18T20:25:11.868Z,23.10
2018-09-18T20:27:40.073Z,23.00
2018-09-18T20:30:08.316Z,23.00
2018-09-18T20:32:36.522Z,22.90
2018-09-18T20:35:05.413Z,22.80
2018-09-18T20:37:34.058Z,22.80
2018-09-18T20:40:02.291Z,22.80
2018-09-18T20:42:30.547Z,22.70
2018-09-18T20:44:58.772Z,22.80
2018-09-18T20:47:27.046Z,22.70
2018-09-18T20:49:55.973Z,22.70
2018-09-18T20:52:27.130Z,22.60
2018-09-18T20:54:55.326Z,22.50
2018-09-18T20:57:23.593Z,22.20
2018-09-18T20:59:52.732Z,22.20
2018-09-18T21:02:20.982Z,22.10
2018-09-18T21:04:49.254Z,22.00
2018-09-18T21:07:17.462Z,22.00
2018-09-18T21:09:45.696Z,21.90
2018-09-18T21:12:13.966Z,21.70
2018-09-18T21:14:42.187Z,21.60
2018-09-18T21:17:10.469Z,21.50
2018-09-18T21:19:38.698Z,21.30
2018-09-18T21:22:06.974Z,21.40
2018-09-18T21:24:35.247Z,21.40
2018-09-18T21:27:03.533Z,20.50
2018-09-18T21:29:31.804Z,20.30
2018-09-18T21:32:00.123Z,20.60
2018-09-18T21:34:28.372Z,20.80
2018-09-18T21:36:56.685Z,20.90
2018-09-18T21:39:24.954Z,20.90
2018-09-18T21:41:53.237Z,20.90
2018-09-18T21:44:21.466Z,20.30
2018-09-18T21:46:49.744Z,20.20
2018-09-18T21:49:17.960Z,20.40
2018-09-18T21:51:46.238Z,20.60
2018-09-18T21:54:14.491Z,20.40
2018-09-18T21:56:42.791Z,20.40
2018-09-18T21:59:11.020Z,20.00
2018-09-18T22:01:39.240Z,20.10
2018-09-18T22:04:07.524Z,20.10
2018-09-18T22:06:35.750Z,20.00
2018-09-18T22:09:04.356Z,20.20
2018-09-18T22:11:32.763Z,20.20
2018-09-18T22:14:01.372Z,20.30
2018-09-18T22:16:29.823Z,20.20
2018-09-18T22:18:58.373Z,20.20
2018-09-18T22:21:26.885Z,19.90
2018-09-18T22:23:55.327Z,20.10
2018-09-18T22:26:23.702Z,20.10
2018-09-18T22:28:52.020Z,20.00
2018-09-18T22:31:20.452Z,19.50
2018-09-18T22:33:48.953Z,19.70
2018-09-18T22:36:17.345Z,20.00
2018-09-18T22:38:45.884Z,20.20
2018-09-18T22:41:14.391Z,20.30
2018-09-18T22:43:42.842Z,20.10
2018-09-18T22:46:11.285Z,19.70
2018-09-18T22:48:39.869Z,19.90
2018-09-18T22:51:08.355Z,20.20
2018-09-18T22:53:37.020Z,20.40
2018-09-18T22:56:05.502Z,20.50
2018-09-18T22:58:34.033Z,20.50
2018-09-18T23:01:02.736Z,20.00
2018-09-18T23:03:31.313Z,20.10
2018-09-18T23:05:59.827Z,20.30
2018-09-18T23:08:28.544Z,20.30
2018-09-18T23:10:56.961Z,19.70
2018-09-18T23:13:25.503Z,19.30
2018-09-18T23:15:54.050Z,19.40
2018-09-18T23:18:22.645Z,19.80
2018-09-18T23:20:51.097Z,19.90
2018-09-18T23:23:19.679Z,19.90
2018-09-18T23:25:48.736Z,19.90
2018-09-18T23:28:17.354Z,19.30
2018-09-18T23:30:46.042Z,19.60
2018-09-18T23:33:15.873Z,19.30
2018-09-18T23:35:44.536Z,19.00
2018-09-18T23:38:13.359Z,18.80
2018-09-18T23:40:41.905Z,18.80
2018-09-18T23:43:10.388Z,18.90
2018-09-18T23:45:39.023Z,18.90
2018-09-18T23:48:07.577Z,18.60
2018-09-18T23:50:36.390Z,18.50
2018-09-18T23:53:04.851Z,18.50
2018-09-18T23:55:33.487Z,18.50
2018-09-18T23:58:02.110Z,18.80
